Time;durP1;ratioP1;P1;durP2;ratioP2;P2;SDS_P1;SDS_P2;PMS_P1;PMS_P2;Temp;Humidity;BMP_temperature;BMP_pressure;BME280_temperature;BME280_humidity;BME280_pressure;Samples;Min_cycle;Max_cycle;Signal;HPM_P1;HPM_P2
2021/08/15 00:02:24;;;;;;;8.65;4.25;;;;;;;24.23;42.58;100034.50;5029593;28;20021;-36
2021/08/15 00:04:49;;;;;;;7.93;4.00;;;;;;;25.06;40.74;100035.19;5029545;28;20029;-37
2021/08/15 00:07:15;;;;;;;8.50;4.63;;;;;;;25.02;40.87;100042.28;5029561;28;20054;-36
2021/08/15 00:09:40;;;;;;;6.90;4.35;;;;;;;25.26;40.40;100034.91;5030259;28;20469;-36
2021/08/15 00:12:07;;;;;;;7.80;4.72;;;;;;;25.52;39.77;100032.63;5030254;28;20084;-37
2021/08/15 00:14:32;;;;;;;7.97;4.80;;;;;;;25.89;38.76;100036.41;5030407;28;20025;-36
2021/08/15 00:16:58;;;;;;;9.85;4.65;;;;;;;25.63;39.33;100035.22;5030150;28;20084;-36
2021/08/15 00:19:23;;;;;;;8.05;4.70;;;;;;;25.70;38.94;100031.00;5030381;28;20131;-36
2021/08/15 00:21:49;;;;;;;10.77;4.90;;;;;;;25.51;39.24;100039.19;5030150;28;20029;-36
2021/08/15 00:24:14;;;;;;;5.05;4.15;;;;;;;25.87;38.59;100032.34;5030357;28;20041;-36
2021/08/15 00:26:39;;;;;;;7.00;4.57;;;;;;;25.86;38.46;100031.53;5028352;28;20029;-36
2021/08/15 00:29:05;;;;;;;7.05;4.50;;;;;;;25.16;40.11;100040.47;5029906;28;20116;-36
2021/08/15 00:31:31;;;;;;;7.68;4.40;;;;;;;25.51;39.44;100043.81;5030124;28;20458;-36
2021/08/15 00:33:57;;;;;;;7.45;4.38;;;;;;;25.70;38.78;100041.91;5028823;28;20029;-36
2021/08/15 00:36:22;;;;;;;7.75;4.43;;;;;;;26.02;38.35;100036.75;5030305;28;20445;-37
2021/08/15 00:38:48;;;;;;;5.80;4.20;;;;;;;25.52;39.46;100029.09;5030384;28;20021;-36
2021/08/15 00:41:13;;;;;;;5.97;4.60;;;;;;;25.71;39.13;100032.59;5031106;28;20040;-36
2021/08/15 00:43:38;;;;;;;9.82;4.07;;;;;;;25.94;38.77;100036.34;5033724;28;20083;-36
2021/08/15 00:46:11;;;;;;;7.70;4.82;;;;;;;26.20;37.74;100040.50;5033570;28;20041;-36
2021/08/15 00:48:36;;;;;;;9.13;4.60;;;;;;;25.77;39.05;100032.53;5033504;28;20550;-36
2021/08/15 00:51:02;;;;;;;8.52;4.50;;;;;;;25.85;39.06;100032.63;5033615;28;20029;-36
2021/08/15 00:53:29;;;;;;;9.95;4.68;;;;;;;25.86;39.01;100031.53;5033522;28;20479;-36
2021/08/15 00:55:57;;;;;;;5.78;4.38;;;;;;;25.83;38.75;100025.88;5033299;28;20052;-36
2021/08/15 00:58:23;;;;;;;10.98;5.28;;;;;;;25.15;40.50;100017.06;5033281;28;20476;-36
2021/08/15 01:00:48;;;;;;;6.68;4.47;;;;;;;24.38;42.12;100021.53;5031822;28;20029;-35
2021/08/15 01:03:13;;;;;;;6.85;4.75;;;;;;;24.49;42.12;100024.16;5033450;28;20461;-36
2021/08/15 01:05:39;;;;;;;8.40;4.60;;;;;;;25.20;40.48;100021.66;5033118;28;20076;-36
2021/08/15 01:08:05;;;;;;;7.88;4.70;;;;;;;25.48;40.01;100019.91;5033178;28;20040;-36
2021/08/15 01:10:31;;;;;;;7.75;4.57;;;;;;;25.41;40.11;100022.19;5033059;28;20402;-36
2021/08/15 01:12:56;;;;;;;8.50;4.45;;;;;;;25.35;40.42;100024.19;5032912;28;20029;-36
2021/08/15 01:15:22;;;;;;;7.63;4.38;;;;;;;25.39;40.01;100021.69;5032956;28;20030;-36
2021/08/15 01:17:47;;;;;;;7.88;4.50;;;;;;;25.83;39.19;100023.16;5032981;28;20032;-36
2021/08/15 01:20:13;;;;;;;6.80;4.65;;;;;;;25.41;40.48;100016.75;5032897;28;20040;-37
2021/08/15 01:22:42;;;;;;;7.63;4.80;;;;;;;25.58;40.05;100021.66;5033387;28;20029;-37
2021/08/15 01:25:08;;;;;;;7.75;4.80;;;;;;;25.90;39.39;100023.56;5033254;28;20112;-37
2021/08/15 01:27:43;;;;;;;6.97;4.65;;;;;;;25.83;39.58;100020.41;5032993;28;20033;-37
2021/08/15 01:30:11;;;;;;;7.30;4.60;;;;;;;25.51;40.59;100017.41;5033114;28;20029;-36
2021/08/15 01:32:43;;;;;;;8.70;4.70;;;;;;;25.30;41.02;100018.78;5032803;28;20599;-37
2021/08/15 01:35:09;;;;;;;9.55;4.90;;;;;;;25.52;40.53;100020.94;5032729;28;20448;-37
2021/08/15 01:37:35;;;;;;;6.70;4.55;;;;;;;25.56;40.18;100016.50;5032675;28;20464;-37
2021/08/15 01:40:04;;;;;;;9.27;5.57;;;;;;;25.23;41.24;100024.63;5032464;28;20099;-37
2021/08/15 01:42:30;;;;;;;;;;;;;;;25.29;41.49;100022.63;5032971;28;20190;-37
2021/08/15 01:44:56;;;;;;;9.05;5.45;;;;;;;25.37;41.11;100030.13;5032543;28;20046;-36
2021/08/15 01:47:21;;;;;;;9.38;5.80;;;;;;;25.44;41.00;100036.03;5032870;28;20025;-37
2021/08/15 01:49:47;;;;;;;7.07;5.53;;;;;;;25.60;40.61;100033.88;5032557;28;20362;-37
2021/08/15 01:52:12;;;;;;;9.23;5.63;;;;;;;25.53;40.95;100030.69;5031596;28;20029;-37
2021/08/15 01:54:37;;;;;;;8.80;5.13;;;;;;;25.64;40.89;100034.09;5031779;28;20036;-36
2021/08/15 01:57:03;;;;;;;13.18;5.50;;;;;;;25.61;40.95;100035.50;5031569;28;20026;-36
2021/08/15 01:59:28;;;;;;;7.05;4.90;;;;;;;25.63;40.68;100025.13;5032081;28;20408;-36
2021/08/15 02:01:55;;;;;;;11.02;5.30;;;;;;;25.19;41.81;100029.03;5032226;28;20028;-37
2021/08/15 02:04:22;;;;;;;6.65;5.20;;;;;;;25.31;41.35;100031.31;5032134;28;20025;-37
2021/08/15 02:06:49;;;;;;;7.35;5.18;;;;;;;25.23;41.87;100032.78;5047360;28;20045;-37
2021/08/15 02:09:14;;;;;;;6.97;5.32;;;;;;;25.33;41.34;100023.66;5050590;28;20113;-37
2021/08/15 02:11:40;;;;;;;10.13;4.88;;;;;;;24.95;42.24;100018.97;5051937;28;20418;-37
2021/08/15 02:14:05;;;;;;;7.43;5.10;;;;;;;25.02;42.24;100020.53;5051554;28;20479;-37
2021/08/15 02:16:31;;;;;;;7.32;4.47;;;;;;;25.24;41.99;100019.97;5051951;28;20025;-37
2021/08/15 02:18:56;;;;;;;7.15;4.75;;;;;;;25.70;40.64;100022.00;5051782;28;20442;-38
2021/08/15 02:21:21;;;;;;;8.38;5.10;;;;;;;25.41;41.60;100025.72;5051674;28;20480;-37
2021/08/15 02:23:47;;;;;;;8.20;5.18;;;;;;;25.26;41.85;100028.66;5051830;28;20086;-36
2021/08/15 02:26:12;;;;;;;9.63;5.05;;;;;;;25.52;41.26;100021.72;5051861;28;20095;-37
2021/08/15 02:28:38;;;;;;;8.18;4.75;;;;;;;25.71;40.92;100020.91;5051517;28;20123;-36
2021/08/15 02:31:03;;;;;;;6.65;4.88;;;;;;;25.76;40.89;100031.72;5051560;28;20025;-36
2021/08/15 02:33:29;;;;;;;8.20;5.25;;;;;;;25.28;42.02;100032.69;5051498;28;20036;-37
2021/08/15 02:35:55;;;;;;;10.07;5.20;;;;;;;25.36;41.80;100033.97;5051564;28;20074;-37
2021/08/15 02:38:21;;;;;;;8.77;5.43;;;;;;;25.51;41.21;100027.47;5051570;28;20104;-37
2021/08/15 02:40:47;;;;;;;6.53;4.72;;;;;;;25.65;41.15;100041.97;5051225;28;20032;-36
2021/08/15 02:43:12;;;;;;;6.95;4.65;;;;;;;25.40;42.03;100037.72;5051547;28;20091;-37
2021/08/15 02:45:38;;;;;;;8.90;4.82;;;;;;;25.53;41.48;100041.59;5051279;28;20021;-37
2021/08/15 02:48:03;;;;;;;8.50;4.97;;;;;;;25.40;41.87;100034.19;5051771;28;20398;-37
2021/08/15 02:50:29;;;;;;;7.82;5.32;;;;;;;25.52;41.52;100029.09;5051265;28;20021;-37
2021/08/15 02:52:54;;;;;;;11.00;5.03;;;;;;;25.32;41.86;100041.09;5051244;28;20029;-37
2021/08/15 02:55:20;;;;;;;9.10;5.00;;;;;;;25.32;41.69;100033.75;5051017;28;20075;-36
2021/08/15 02:57:45;;;;;;;7.70;5.25;;;;;;;25.31;41.48;100028.59;5051050;28;20036;-36
2021/08/15 03:00:11;;;;;;;8.32;5.60;;;;;;;25.07;42.34;100026.69;5050778;28;20436;-36
2021/08/15 03:02:37;;;;;;;7.72;5.00;;;;;;;24.89;43.03;100030.25;5050947;28;20096;-37
2021/08/15 03:05:03;;;;;;;10.68;5.40;;;;;;;24.94;42.47;100025.53;5048886;28;20372;-37
2021/08/15 03:07:29;;;;;;;11.57;5.43;;;;;;;25.14;42.35;100035.31;5030528;28;20136;-37
2021/08/15 03:09:55;;;;;;;8.05;5.30;;;;;;;25.30;41.71;100038.69;5028699;28;20041;-37
2021/08/15 03:12:20;;;;;;;10.77;5.80;;;;;;;25.28;42.16;100035.44;5030582;28;20489;-37
2021/08/15 03:14:46;;;;;;;10.05;5.15;;;;;;;25.01;42.70;100043.41;5030494;28;20498;-37
2021/08/15 03:17:12;;;;;;;8.68;5.38;;;;;;;25.04;42.34;100035.47;5030750;28;20029;-37
2021/08/15 03:19:37;;;;;;;9.20;5.30;;;;;;;25.24;41.43;100036.31;5030619;28;20095;-36
2021/08/15 03:22:05;;;;;;;9.00;5.40;;;;;;;25.25;41.31;100033.31;5030699;28;20025;-37
2021/08/15 03:24:30;;;;;;;11.00;5.63;;;;;;;24.97;41.50;100035.81;5030705;28;20159;-36
2021/08/15 03:26:56;;;;;;;7.22;5.53;;;;;;;25.17;40.97;100040.19;5030588;28;20539;-36
2021/08/15 03:29:21;;;;;;;8.68;5.70;;;;;;;25.43;40.12;100028.16;5030471;28;20037;-37
2021/08/15 03:31:47;;;;;;;10.05;6.00;;;;;;;25.32;39.97;100033.75;5030425;28;20029;-37
2021/08/15 03:34:12;;;;;;;10.65;5.65;;;;;;;25.12;40.67;100037.53;5030521;28;20121;-37
2021/08/15 03:36:38;;;;;;;10.60;6.25;;;;;;;25.05;40.83;100041.72;5030483;28;20031;-37
2021/08/15 03:39:04;;;;;;;12.45;5.80;;;;;;;25.39;40.09;100038.03;5030394;28;20183;-37
2021/08/15 03:41:29;;;;;;;7.93;5.80;;;;;;;25.52;39.72;100040.00;5030075;28;20407;-38
2021/08/15 03:43:55;;;;;;;7.68;5.70;;;;;;;25.36;40.14;100040.22;5030172;28;20025;-36
2021/08/15 03:46:20;;;;;;;9.25;5.50;;;;;;;25.15;40.87;100049.75;5030427;28;20032;-36
2021/08/15 03:48:46;;;;;;;9.40;5.53;;;;;;;25.34;40.40;100053.34;5030042;28;20080;-37
2021/08/15 03:51:11;;;;;;;9.25;6.03;;;;;;;25.40;40.30;100050.50;5030083;28;20474;-37
2021/08/15 03:53:37;;;;;;;10.77;5.90;;;;;;;25.30;40.56;100051.47;5030135;28;20028;-37
2021/08/15 03:56:02;;;;;;;7.35;5.57;;;;;;;25.14;41.01;100048.13;5029677;28;20123;-37
2021/08/15 03:58:28;;;;;;;8.07;5.80;;;;;;;25.45;40.33;100048.53;5030063;28;20025;-36
2021/08/15 04:00:54;;;;;;;8.93;5.85;;;;;;;25.41;40.30;100049.44;5030135;28;20102;-36
2021/08/15 04:03:20;;;;;;;10.90;5.60;;;;;;;25.62;39.46;100047.19;5030283;28;20017;-37
2021/08/15 04:05:46;;;;;;;10.80;5.88;;;;;;;25.30;40.63;100052.31;5037848;28;20037;-37
2021/08/15 04:08:11;;;;;;;9.05;5.70;;;;;;;25.55;40.27;100051.13;5050332;28;20037;-37
2021/08/15 04:10:37;;;;;;;8.88;6.35;;;;;;;26.04;39.41;100053.63;5050079;28;20374;-36
2021/08/15 04:13:03;;;;;;;12.23;6.13;;;;;;;26.49;38.40;100057.44;5050271;28;20104;-36
2021/08/15 04:15:28;;;;;;;9.20;5.60;;;;;;;26.30;38.88;100046.59;5050223;28;20024;-36
2021/08/15 04:17:53;;;;;;;8.15;5.53;;;;;;;26.31;39.12;100055.59;5053840;28;20465;-36
2021/08/15 04:20:19;;;;;;;10.07;6.10;;;;;;;26.69;38.48;100059.00;5053819;28;20408;-37
2021/08/15 04:22:45;;;;;;;7.18;5.95;;;;;;;27.09;37.61;100058.44;5053941;28;20025;-37
2021/08/15 04:25:10;;;;;;;8.90;6.28;;;;;;;27.20;37.30;100056.28;5053221;28;20033;-37
2021/08/15 04:27:36;;;;;;;7.35;5.53;;;;;;;27.14;37.43;100046.59;5053157;28;20036;-37
2021/08/15 04:30:03;;;;;;;9.85;5.95;;;;;;;27.54;36.71;100053.09;5053311;28;20028;-37
2021/08/15 04:32:28;;;;;;;10.88;5.57;;;;;;;27.85;36.25;100041.41;5053269;28;20020;-37
2021/08/15 04:34:54;;;;;;;9.43;6.05;;;;;;;27.96;35.87;100047.44;5053076;28;20032;-36
2021/08/15 04:37:20;;;;;;;7.70;6.13;;;;;;;27.21;37.28;100047.00;5053014;28;20029;-37
2021/08/15 04:39:45;;;;;;;10.05;5.57;;;;;;;27.70;36.47;100053.50;5052967;28;20036;-37
2021/08/15 04:42:11;;;;;;;7.55;5.90;;;;;;;27.97;35.90;100049.06;5052731;28;20044;-37
2021/08/15 04:44:36;;;;;;;7.45;5.05;;;;;;;28.62;34.85;100047.63;5053126;28;20044;-36
2021/08/15 04:47:02;;;;;;;11.32;5.90;;;;;;;28.58;34.88;100046.66;5052984;28;20043;-37
2021/08/15 04:49:28;;;;;;;8.98;5.47;;;;;;;28.81;34.34;100044.63;5053196;28;20020;-36
2021/08/15 04:51:54;;;;;;;6.35;5.45;;;;;;;29.24;33.84;100052.13;5052883;28;20463;-36
2021/08/15 04:54:23;;;;;;;9.23;5.57;;;;;;;29.72;33.09;100047.59;5052598;28;20492;-36
2021/08/15 04:56:49;;;;;;;11.73;6.32;;;;;;;29.41;33.62;100049.38;5052472;28;20029;-36
2021/08/15 04:59:15;;;;;;;8.38;5.80;;;;;;;29.33;33.48;100044.72;5052683;28;20468;-36
2021/08/15 05:01:40;;;;;;;11.52;5.80;;;;;;;29.60;32.92;100045.50;5052445;28;20040;-35
2021/08/15 05:04:05;;;;;;;9.82;6.03;;;;;;;30.10;32.02;100041.41;5052564;28;20159;-36
2021/08/15 05:06:33;;;;;;;10.43;7.72;;;;;;;30.24;31.71;100047.50;5038081;28;20432;-36
2021/08/15 05:08:58;;;;;;;9.70;6.20;;;;;;;29.84;32.66;100045.03;5032669;28;20504;-37
2021/08/15 05:11:24;;;;;;;9.70;6.25;;;;;;;30.09;32.17;100037.88;5032245;28;20029;-37
2021/08/15 05:13:49;;;;;;;8.20;6.28;;;;;;;30.62;31.34;100043.19;5032375;28;20539;-37
2021/08/15 05:16:15;;;;;;;7.68;5.78;;;;;;;31.07;30.76;100035.19;5032324;28;20096;-36
2021/08/15 05:18:41;;;;;;;11.32;6.68;;;;;;;31.13;30.49;100039.34;5032264;28;20031;-37
2021/08/15 05:21:06;;;;;;;6.85;5.85;;;;;;;31.26;30.20;100044.88;5032240;28;20539;-37
2021/08/15 05:23:31;;;;;;;10.27;5.68;;;;;;;31.06;30.36;100047.31;5032369;28;20021;-36
2021/08/15 05:25:57;;;;;;;8.43;6.30;;;;;;;31.61;29.35;100044.63;5030914;28;20535;-37
2021/08/15 05:28:22;;;;;;;6.95;5.30;;;;;;;30.54;30.95;100050.31;5032131;28;20014;-36
2021/08/15 05:30:48;;;;;;;9.02;5.50;;;;;;;31.08;30.85;100047.78;5031956;28;20025;-37
2021/08/15 05:33:13;;;;;;;8.02;5.55;;;;;;;31.40;30.04;100047.34;5031561;28;20033;-36
2021/08/15 05:35:39;;;;;;;8.55;5.30;;;;;;;31.64;30.22;100046.69;5031731;28;20021;-37
2021/08/15 05:38:04;;;;;;;8.05;5.47;;;;;;;31.52;30.48;100056.50;5031644;28;20079;-37
2021/08/15 05:40:30;;;;;;;8.00;5.50;;;;;;;31.71;30.56;100056.00;5031776;28;20457;-37
2021/08/15 05:42:55;;;;;;;9.48;5.63;;;;;;;32.03;29.62;100045.34;5032041;28;20454;-35
2021/08/15 05:45:21;;;;;;;9.57;5.68;;;;;;;32.32;29.28;100041.59;5031894;28;20018;-36
2021/08/15 05:47:46;;;;;;;7.90;5.75;;;;;;;32.53;29.80;100048.97;5030224;28;20033;-36
2021/08/15 05:50:12;;;;;;;8.60;5.68;;;;;;;32.23;29.56;100054.66;5031813;28;20021;-36
2021/08/15 05:52:37;;;;;;;7.95;5.10;;;;;;;32.31;29.56;100045.53;5031582;28;20030;-37
2021/08/15 05:55:04;;;;;;;8.85;5.80;;;;;;;32.69;28.69;100049.91;5031192;28;20025;-35
2021/08/15 05:57:29;;;;;;;7.13;5.75;;;;;;;33.14;27.90;100050.09;5031264;28;20033;-37
2021/08/15 05:59:55;;;;;;;7.15;5.25;;;;;;;32.88;28.32;100054.84;5031194;28;20021;-36
2021/08/15 06:02:20;;;;;;;10.63;5.43;;;;;;;32.67;28.92;100057.72;5031089;28;20072;-37
2021/08/15 06:04:45;;;;;;;6.78;5.20;;;;;;;33.09;28.26;100056.63;5031340;28;20025;-37
2021/08/15 06:07:11;;;;;;;7.40;5.32;;;;;;;33.44;27.97;100045.06;5050059;28;20413;-37
2021/08/15 06:09:37;;;;;;;11.13;5.45;;;;;;;33.70;27.25;100044.66;5050408;28;20035;-37
2021/08/15 06:12:05;;;;;;;7.60;5.50;;;;;;;33.47;27.75;100053.47;5050812;28;20495;-37
2021/08/15 06:14:31;;;;;;;8.60;5.00;;;;;;;33.28;28.00;100051.34;5050838;28;20025;-37
2021/08/15 06:16:57;;;;;;;8.45;5.20;;;;;;;33.77;26.94;100041.28;5049833;28;20492;-35
2021/08/15 06:19:22;;;;;;;6.18;4.82;;;;;;;33.75;26.85;100047.13;5042081;28;20026;-36
2021/08/15 06:21:48;;;;;;;5.32;4.72;;;;;;;34.07;26.99;100048.00;5042181;28;20501;-36
2021/08/15 06:24:13;;;;;;;7.88;5.18;;;;;;;34.16;26.48;100041.53;5039068;28;20091;-37
2021/08/15 06:26:38;;;;;;;7.75;5.10;;;;;;;34.13;26.96;100044.97;5040465;28;20365;-37
2021/08/15 06:29:04;;;;;;;6.63;4.72;;;;;;;34.23;26.32;100042.53;5043587;28;20099;-36
2021/08/15 06:31:29;;;;;;;9.38;5.32;;;;;;;34.12;26.45;100043.34;5038840;28;20017;-37
2021/08/15 06:33:55;;;;;;;13.65;10.43;;;;;;;34.45;26.15;100043.03;5041049;28;20457;-36
2021/08/15 06:36:20;;;;;;;5.93;4.80;;;;;;;34.10;26.52;100035.44;5040169;28;20334;-36
2021/08/15 06:38:46;;;;;;;7.72;4.70;;;;;;;34.03;26.87;100038.03;5041252;28;20056;-36
2021/08/15 06:41:11;;;;;;;6.97;4.97;;;;;;;34.34;25.99;100039.22;5042220;28;20032;-37
2021/08/15 06:43:37;;;;;;;7.45;4.60;;;;;;;34.78;25.35;100030.81;5039062;28;20021;-37
2021/08/15 06:46:02;;;;;;;7.53;4.78;;;;;;;34.83;25.65;100036.06;5041744;28;20028;-37
2021/08/15 06:48:28;;;;;;;7.80;4.80;;;;;;;35.09;25.01;100040.16;5039510;28;20029;-36
2021/08/15 06:50:57;;;;;;;8.73;5.47;;;;;;;35.42;24.78;100043.25;5041140;28;20021;-36
2021/08/15 06:53:23;;;;;;;6.80;5.03;;;;;;;35.50;24.30;100038.66;5035943;28;20028;-37
2021/08/15 06:55:48;;;;;;;11.35;4.90;;;;;;;35.82;24.85;100033.78;5041918;28;20025;-37
2021/08/15 06:58:14;;;;;;;6.38;5.10;;;;;;;35.38;24.75;100036.06;5040152;28;20508;-36
2021/08/15 07:00:39;;;;;;;7.72;4.88;;;;;;;35.71;24.76;100021.69;5037845;28;20036;-37
2021/08/15 07:03:04;;;;;;;6.82;5.13;;;;;;;35.51;24.62;100029.22;5035247;28;20029;-36
2021/08/15 07:05:30;;;;;;;6.03;4.90;;;;;;;36.17;24.09;100024.50;5040478;28;20484;-36
2021/08/15 07:07:55;;;;;;;7.25;5.05;;;;;;;36.13;23.79;99993.16;5040043;28;20469;-36
2021/08/15 07:10:21;;;;;;;7.50;4.80;;;;;;;35.98;23.84;100019.81;5039047;28;20029;-37
2021/08/15 07:12:52;;;;;;;8.07;5.10;;;;;;;36.16;24.01;100019.34;5037850;28;20027;-36
2021/08/15 07:15:18;;;;;;;9.10;4.90;;;;;;;36.43;23.75;100022.16;5044369;28;20020;-36
2021/08/15 07:17:43;;;;;;;8.18;4.95;;;;;;;36.86;22.78;100009.75;5042922;28;20374;-36
2021/08/15 07:20:09;;;;;;;8.18;4.95;;;;;;;36.55;23.04;100022.72;5037956;28;20442;-37
2021/08/15 07:22:35;;;;;;;9.73;4.68;;;;;;;36.77;23.13;100006.47;5036786;28;20422;-37
2021/08/15 07:25:03;;;;;;;7.28;5.07;;;;;;;36.57;22.97;100019.59;5037505;28;20021;-37
2021/08/15 07:27:28;;;;;;;9.48;5.03;;;;;;;36.62;23.27;100012.94;5040896;28;20021;-37
2021/08/15 07:29:54;;;;;;;9.85;5.00;;;;;;;36.67;23.21;100007.91;5042195;28;20033;-37
2021/08/15 07:32:19;;;;;;;9.63;5.00;;;;;;;36.64;23.34;100003.06;5034913;28;20412;-37
2021/08/15 07:34:45;;;;;;;9.68;5.00;;;;;;;36.43;22.81;100003.56;5029635;28;20044;-37
2021/08/15 07:37:10;;;;;;;7.05;5.25;;;;;;;36.65;22.45;100004.69;5028283;28;20064;-38
2021/08/15 07:39:36;;;;;;;8.52;4.80;;;;;;;37.10;21.99;100002.91;5029629;28;20032;-38
2021/08/15 07:42:01;;;;;;;6.22;4.72;;;;;;;37.29;21.99;99993.66;5028021;28;20040;-38
2021/08/15 07:44:27;;;;;;;6.50;5.00;;;;;;;37.14;22.29;100003.78;5029551;28;20033;-38
2021/08/15 07:46:52;;;;;;;7.50;4.75;;;;;;;37.28;21.70;99996.81;5029614;28;20030;-37
2021/08/15 07:49:18;;;;;;;6.40;4.90;;;;;;;37.38;21.62;100001.69;5029918;28;20029;-36
2021/08/15 07:51:44;;;;;;;5.00;4.32;;;;;;;37.32;21.69;100001.22;5031965;28;20346;-38
2021/08/15 07:54:10;;;;;;;6.30;4.90;;;;;;;36.94;22.40;99997.56;5034037;28;20026;-38
2021/08/15 07:56:35;;;;;;;6.43;5.25;;;;;;;37.58;21.45;99993.97;5033768;28;20044;-37
2021/08/15 07:59:01;;;;;;;6.70;5.13;;;;;;;37.09;22.09;99990.25;5033267;28;20496;-37
2021/08/15 08:01:26;;;;;;;6.95;4.93;;;;;;;38.09;21.00;99992.50;5033022;28;20033;-36
2021/08/15 08:03:52;;;;;;;6.93;4.95;;;;;;;37.39;21.62;99985.84;5033306;28;20477;-37
2021/08/15 08:06:17;;;;;;;6.80;4.82;;;;;;;37.36;21.66;99974.31;5033123;28;20140;-38
2021/08/15 08:08:42;;;;;;;7.15;5.20;;;;;;;37.29;21.92;99979.78;5032990;28;20037;-38
2021/08/15 08:11:08;;;;;;;7.80;4.93;;;;;;;37.00;21.90;99973.09;5032998;28;20040;-37
2021/08/15 08:13:33;;;;;;;11.57;5.30;;;;;;;36.84;22.06;99972.47;5033312;28;20032;-37
2021/08/15 08:15:59;;;;;;;6.05;5.00;;;;;;;36.96;22.06;99975.03;5033585;28;20467;-38
2021/08/15 08:18:24;;;;;;;7.22;5.30;;;;;;;37.51;21.62;99975.28;5033350;28;20481;-38
2021/08/15 08:20:50;;;;;;;7.90;5.00;;;;;;;37.95;21.09;99968.97;5033125;28;20030;-38
2021/08/15 08:23:15;;;;;;;9.60;7.10;;;;;;;37.79;21.19;99968.41;5032859;28;20037;-38
2021/08/15 08:25:44;;;;;;;10.18;8.15;;;;;;;38.14;20.71;99965.16;5032747;28;20104;-36
2021/08/15 08:28:09;;;;;;;6.38;5.05;;;;;;;37.79;20.88;99957.31;5034932;28;20040;-37
2021/08/15 08:30:35;;;;;;;7.03;4.82;;;;;;;37.34;21.47;99962.81;5052620;28;20064;-37
2021/08/15 08:33:01;;;;;;;10.07;5.07;;;;;;;38.07;20.48;99947.63;5052837;28;20031;-37
2021/08/15 08:35:26;;;;;;;5.65;4.93;;;;;;;38.11;20.97;99946.50;5052460;28;20231;-37
2021/08/15 08:37:52;;;;;;;5.22;4.63;;;;;;;38.26;20.44;99952.94;5052802;28;20056;-37
2021/08/15 08:40:17;;;;;;;8.15;4.75;;;;;;;38.19;20.09;99950.13;5053253;28;20044;-37
2021/08/15 08:42:44;;;;;;;8.73;4.68;;;;;;;38.67;20.15;99946.44;5052777;28;20475;-37
2021/08/15 08:45:11;;;;;;;6.80;4.70;;;;;;;38.29;20.67;99941.06;5052823;28;20123;-38
2021/08/15 08:47:36;;;;;;;8.13;4.75;;;;;;;38.37;20.50;99944.69;5037193;28;20025;-38
2021/08/15 08:50:02;;;;;;;7.70;4.88;;;;;;;38.33;20.57;99941.09;5031252;28;20467;-38
2021/08/15 08:52:29;;;;;;;6.90;5.10;;;;;;;38.92;19.62;99941.81;5032810;28;20083;-38
2021/08/15 08:54:56;;;;;;;6.63;4.68;;;;;;;39.08;19.61;99937.91;5032777;28;20116;-38
2021/08/15 08:57:21;;;;;;;9.32;4.93;;;;;;;39.26;19.72;99943.50;5032978;28;20044;-37
2021/08/15 08:59:47;;;;;;;10.65;5.20;;;;;;;38.69;20.03;99927.41;5032784;28;20037;-38
2021/08/15 09:02:12;;;;;;;9.30;5.13;;;;;;;38.86;19.28;99928.66;5032084;28;20463;-36
2021/08/15 09:04:38;;;;;;;7.18;4.55;;;;;;;38.59;19.98;99919.81;5047104;28;20534;-50
2021/08/15 09:07:23;;;;;;;5.80;4.80;;;;;;;38.24;20.33;99921.97;5033754;28;20060;-50
2021/08/15 09:09:56;;;;;;;6.97;4.82;;;;;;;38.59;19.64;99917.81;5032271;28;20029;-51
2021/08/15 09:12:31;;;;;;;9.02;4.68;;;;;;;38.65;19.82;99924.63;5032135;28;20511;-49
2021/08/15 09:15:10;;;;;;;5.47;4.55;;;;;;;38.61;19.32;99892.41;5046762;28;20033;-52
2021/08/15 09:17:36;;;;;;;6.78;4.40;;;;;;;38.46;19.07;99911.78;5052196;28;20493;-50
2021/08/15 09:20:02;;;;;;;5.65;4.70;;;;;;;38.05;19.27;99911.91;5052090;28;20657;-49
2021/08/15 09:22:30;;;;;;;5.60;4.60;;;;;;;38.39;19.57;99906.19;5050790;28;20033;-50
2021/08/15 09:24:57;;;;;;;7.20;4.72;;;;;;;38.69;19.33;99905.97;5051849;28;20032;-50
2021/08/15 09:27:25;;;;;;;6.45;4.50;;;;;;;38.18;19.70;99898.53;5051726;28;20104;-37
2021/08/15 09:30:11;;;;;;;7.60;4.70;;;;;;;37.87;20.11;99897.09;5033561;28;20128;-37
2021/08/15 09:32:46;;;;;;;7.18;4.63;;;;;;;38.05;19.50;99900.78;5043239;28;20036;-38
2021/08/15 09:35:19;;;;;;;7.65;4.78;;;;;;;37.10;20.52;99899.50;5050615;28;20029;-37
2021/08/15 09:37:45;;;;;;;5.45;4.32;;;;;;;36.86;20.75;99886.94;5051519;28;20445;-37
2021/08/15 09:40:24;;;;;;;6.93;4.30;;;;;;;36.66;21.47;99886.34;5051673;28;20091;-37
2021/08/15 09:42:50;;;;;;;6.70;4.68;;;;;;;36.85;21.12;99874.28;5051225;28;20021;-37
2021/08/15 09:45:17;;;;;;;6.47;4.30;;;;;;;36.93;21.03;99881.50;5051235;28;20106;-37
2021/08/15 09:47:43;;;;;;;7.60;4.70;;;;;;;37.46;20.71;99867.41;5051005;28;20463;-38
2021/08/15 09:50:20;;;;;;;7.97;4.20;;;;;;;38.12;20.12;99870.31;5048692;28;20544;-37
2021/08/15 09:52:46;;;;;;;5.18;4.68;;;;;;;38.64;19.80;99858.28;5050538;28;20021;-37
2021/08/15 09:55:11;;;;;;;8.57;4.68;;;;;;;39.46;18.56;99857.72;5050698;28;20017;-37
2021/08/15 09:57:37;;;;;;;9.48;4.40;;;;;;;38.68;19.38;99856.31;5050009;28;20029;-36
2021/08/15 10:00:25;;;;;;;7.22;4.60;;;;;;;38.86;19.65;99853.56;5048541;28;20472;-36
2021/08/15 10:02:51;;;;;;;5.07;4.10;;;;;;;38.53;19.24;99844.31;5041620;28;20048;-36
2021/08/15 10:05:16;;;;;;;6.15;4.45;;;;;;;39.33;19.12;99843.34;5033491;28;20029;-37
2021/08/15 10:07:45;;;;;;;7.13;4.30;;;;;;;38.91;18.91;99848.44;5050240;28;20478;-38
2021/08/15 10:10:14;;;;;;;4.40;4.00;;;;;;;38.55;18.78;99844.75;5050266;28;20515;-39
2021/08/15 10:12:39;;;;;;;5.40;4.28;;;;;;;38.08;19.54;99838.97;5050808;28;20032;-37
2021/08/15 10:15:10;;;;;;;7.70;4.55;;;;;;;38.22;19.12;99834.66;5049621;28;20035;-37
2021/08/15 10:17:35;;;;;;;5.55;4.50;;;;;;;38.01;19.75;99821.44;5049096;28;20404;-37
2021/08/15 10:20:03;;;;;;;6.07;4.28;;;;;;;38.09;19.51;99829.44;5033001;28;20028;-37
2021/08/15 10:22:32;;;;;;;5.93;4.25;;;;;;;38.31;19.87;99818.44;5050875;28;20473;-38
2021/08/15 10:25:01;;;;;;;6.50;4.40;;;;;;;38.37;19.52;99821.63;5049121;28;20029;-38
2021/08/15 10:27:41;;;;;;;5.25;4.40;;;;;;;37.98;19.59;99813.88;5047646;28;20036;-38
2021/08/15 10:30:13;;;;;;;6.50;4.32;;;;;;;37.36;20.49;99821.72;5048973;28;20028;-39
2021/08/15 10:32:58;;;;;;;9.35;4.45;;;;;;;37.72;19.66;99808.16;5048781;28;20108;-38
2021/08/15 10:35:25;;;;;;;7.47;4.75;;;;;;;37.90;19.52;99811.03;5049460;28;20056;-40
2021/08/15 10:37:55;;;;;;;6.60;4.50;;;;;;;37.10;20.58;99802.44;5049356;28;20032;-39
2021/08/15 10:40:38;;;;;;;5.00;4.10;;;;;;;37.43;20.33;99800.78;5050197;28;20029;-37
2021/08/15 10:43:04;;;;;;;6.75;4.38;;;;;;;37.71;19.47;99791.88;5050439;28;20165;-37
2021/08/15 10:45:30;;;;;;;7.95;4.30;;;;;;;38.26;19.58;99797.38;5050235;28;20070;-38
2021/08/15 10:48:04;;;;;;;7.10;4.35;;;;;;;37.77;20.17;99784.00;5049076;28;20122;-38
2021/08/15 10:50:47;;;;;;;4.72;4.20;;;;;;;37.34;19.83;99784.47;5050129;28;20031;-38
2021/08/15 10:53:35;;;;;;;5.50;4.30;;;;;;;37.65;20.33;99777.56;5050311;28;20514;-39
2021/08/15 10:56:02;;;;;;;7.32;4.10;;;;;;;38.39;19.56;99772.03;5043542;28;20037;-38
2021/08/15 10:58:44;;;;;;;5.47;3.90;;;;;;;38.36;19.55;99765.25;5050455;28;20454;-38
2021/08/15 11:01:11;;;;;;;4.80;4.30;;;;;;;38.13;19.72;99776.66;5049786;28;20056;-37
2021/08/15 11:03:38;;;;;;;4.90;4.18;;;;;;;37.43;20.54;99765.47;5050113;28;20103;-37
2021/08/15 11:06:04;;;;;;;5.72;4.05;;;;;;;37.44;20.07;99769.88;5039400;28;20048;-37
2021/08/15 11:08:32;;;;;;;5.13;4.22;;;;;;;36.82;20.72;99761.38;5030261;28;20025;-37
2021/08/15 11:11:10;;;;;;;6.47;4.28;;;;;;;36.89;20.66;99769.78;5030041;28;20064;-37
2021/08/15 11:13:37;;;;;;;5.78;4.63;;;;;;;36.84;20.15;99753.47;5029882;28;20049;-37
2021/08/15 11:16:25;;;;;;;6.93;4.38;;;;;;;37.77;19.71;99748.69;5029895;28;20037;-37
2021/08/15 11:19:22;;;;;;;5.50;4.50;;;;;;;37.81;19.84;99746.72;5030006;28;20052;-37
2021/08/15 11:22:08;;;;;;;8.75;4.63;;;;;;;38.37;19.31;99744.63;5006606;28;20151;-37
2021/08/15 11:24:35;;;;;;;5.57;4.60;;;;;;;39.06;18.94;99734.47;5029775;28;20059;-37
2021/08/15 11:27:00;;;;;;;8.63;4.47;;;;;;;39.45;18.71;99737.25;5029754;28;20033;-38